Time;durP1;ratioP1;P1;durP2;ratioP2;P2;SDS_P1;SDS_P2;PMS_P1;PMS_P2;Temp;Humidity;BMP_temperature;BMP_pressure;BME280_temperature;BME280_humidity;BME280_pressure;Samples;Min_cycle;Max_cycle;Signal;HPM_P1;HPM_P2
2024/03/28 00:00:47;;;;;;;27.90;13.27;;;;;;;8.93;81.74;95993.91;4959207;28;20486;-86
2024/03/28 00:03:13;;;;;;;21.85;11.23;;;;;;;8.67;82.29;95971.75;4975325;28;20053;-86
2024/03/28 00:05:38;;;;;;;24.52;12.00;;;;;;;8.57;82.86;95945.41;4996802;28;20026;-86
2024/03/28 00:08:04;;;;;;;25.50;11.10;;;;;;;8.70;82.23;95976.44;4979779;28;20026;-86
2024/03/28 00:10:30;;;;;;;22.65;11.48;;;;;;;8.49;82.52;95927.56;4964932;28;20482;-86
2024/03/28 00:12:56;;;;;;;21.73;11.15;;;;;;;8.62;81.64;95938.09;4964861;28;20080;-87
2024/03/28 00:15:22;;;;;;;19.20;9.82;;;;;;;8.64;81.71;95962.50;4965386;28;20398;-86
2024/03/28 00:17:48;;;;;;;21.23;10.80;;;;;;;8.45;82.75;95900.81;4949559;28;20026;-86
2024/03/28 00:20:13;;;;;;;16.13;9.65;;;;;;;8.41;83.37;95946.91;4981039;28;20069;-86
2024/03/28 00:22:41;;;;;;;18.05;9.98;;;;;;;8.41;83.55;95933.63;4982091;28;20030;-86
2024/03/28 00:25:10;;;;;;;13.73;9.32;;;;;;;8.43;83.89;95956.13;4949722;28;20022;-85
2024/03/28 00:27:36;;;;;;;17.10;8.75;;;;;;;8.41;84.26;95954.91;4973756;28;20053;-85
2024/03/28 00:30:01;;;;;;;14.75;9.32;;;;;;;8.49;83.02;95967.44;4966178;28;20026;-86
2024/03/28 00:32:27;;;;;;;16.70;8.55;;;;;;;8.36;83.42;95917.81;4982174;28;20062;-86
2024/03/28 00:34:52;;;;;;;14.63;8.20;;;;;;;8.67;82.95;95956.56;4949668;28;20038;-86
2024/03/28 00:37:18;;;;;;;17.13;8.10;;;;;;;8.41;83.30;95941.59;4966355;28;20034;-86
2024/03/28 00:39:51;;;;;;;15.90;8.18;;;;;;;8.16;85.87;95945.66;4966553;28;20023;-85
2024/03/28 00:42:20;;;;;;;13.77;7.85;;;;;;;8.28;84.15;95933.41;4981478;28;20022;-86
2024/03/28 00:44:52;;;;;;;15.45;8.52;;;;;;;8.48;84.21;95963.19;4966022;28;20038;-86
2024/03/28 00:47:17;;;;;;;14.45;9.15;;;;;;;8.17;85.18;95960.47;4965184;28;20039;-86
2024/03/28 00:49:43;;;;;;;15.00;8.02;;;;;;;8.24;83.51;95923.66;4949767;28;20112;-86
2024/03/28 00:52:09;;;;;;;11.25;6.55;;;;;;;8.00;84.50;95952.41;4965308;28;20030;-86
2024/03/28 00:54:35;;;;;;;13.50;6.50;;;;;;;8.67;82.96;95961.13;4965145;28;20039;-85
2024/03/28 00:57:02;;;;;;;14.45;7.20;;;;;;;8.64;82.47;95956.41;4949444;28;20057;-86
2024/03/28 00:59:27;;;;;;;10.88;6.47;;;;;;;7.82;83.62;95871.09;4965588;28;20074;-86
2024/03/28 01:01:52;;;;;;;13.18;6.82;;;;;;;8.33;83.81;95964.38;4964983;28;20076;-86
2024/03/28 01:04:19;;;;;;;12.50;6.25;;;;;;;7.53;85.99;95927.25;4965542;28;20093;-86
2024/03/28 01:06:45;;;;;;;9.77;6.20;;;;;;;7.61;87.61;95958.38;4965009;28;20513;-86
2024/03/28 01:09:10;;;;;;;13.75;6.25;;;;;;;7.97;86.53;95974.28;4949076;28;20038;-86
2024/03/28 01:11:36;;;;;;;11.32;6.07;;;;;;;8.04;86.63;95977.28;4948562;28;20465;-86
2024/03/28 01:14:01;;;;;;;11.00;6.38;;;;;;;8.30;85.59;95984.38;4949011;28;20073;-87
2024/03/28 01:16:27;;;;;;;9.93;6.18;;;;;;;8.40;83.18;95961.28;4949077;28;20542;-85
2024/03/28 01:18:52;;;;;;;9.90;5.82;;;;;;;8.38;83.84;95964.25;4949508;28;20043;-85
2024/03/28 01:21:17;;;;;;;10.20;6.13;;;;;;;7.84;83.81;95896.22;4949423;28;20045;-86
2024/03/28 01:23:43;;;;;;;12.65;5.22;;;;;;;8.50;82.55;95948.50;4963793;28;20037;-86
2024/03/28 01:26:09;;;;;;;10.80;5.20;;;;;;;8.45;83.65;95987.75;4996023;28;20149;-87
2024/03/28 01:28:37;;;;;;;13.10;6.13;;;;;;;8.05;83.75;95950.44;4964382;28;20030;-86
2024/03/28 01:31:04;;;;;;;7.35;5.65;;;;;;;8.38;83.15;95963.47;4947192;28;20474;-86
2024/03/28 01:33:29;;;;;;;9.10;5.13;;;;;;;8.43;83.02;96000.56;4946678;28;20037;-86
2024/03/28 01:35:55;;;;;;;8.50;5.30;;;;;;;8.27;83.97;95987.66;4962596;28;20046;-86
2024/03/28 01:38:21;;;;;;;7.90;4.53;;;;;;;7.72;83.63;95950.97;4946373;28;20037;-86
2024/03/28 01:40:47;;;;;;;9.10;5.50;;;;;;;8.08;84.08;95976.38;4962014;28;20050;-86
2024/03/28 01:43:14;;;;;;;9.23;3.97;;;;;;;7.44;84.09;95891.91;4978274;28;20022;-86
2024/03/28 01:45:41;;;;;;;5.03;3.88;;;;;;;7.97;85.23;95990.22;4978455;28;20026;-86
2024/03/28 01:48:07;;;;;;;7.63;4.13;;;;;;;7.41;84.14;95911.06;4947437;28;20026;-86
2024/03/28 01:50:34;;;;;;;6.00;3.67;;;;;;;7.43;83.94;95917.63;4947892;28;20030;-86
2024/03/28 01:53:00;;;;;;;5.15;2.92;;;;;;;8.03;83.81;96004.94;4978818;28;20508;-86
2024/03/28 01:55:26;;;;;;;6.28;3.33;;;;;;;7.89;83.80;96009.50;4962231;28;20034;-86
2024/03/28 01:57:52;;;;;;;5.45;3.47;;;;;;;7.94;84.19;96014.69;4961863;28;20550;-86
2024/03/28 02:00:20;;;;;;;2.50;2.15;;;;;;;7.26;83.41;95890.16;4961665;28;20034;-86
2024/03/28 02:02:50;;;;;;;4.18;2.60;;;;;;;7.34;83.80;95934.56;4978495;28;20027;-86
2024/03/28 02:05:19;;;;;;;3.45;2.38;;;;;;;7.92;83.18;96008.91;4962341;28;20494;-86
2024/03/28 02:07:46;;;;;;;4.85;2.08;;;;;;;7.56;83.13;95934.59;4978732;28;20490;-86
2024/03/28 02:10:11;;;;;;;2.63;2.42;;;;;;;8.14;82.57;95995.66;4962094;28;20394;-87
2024/03/28 02:12:37;;;;;;;2.58;1.73;;;;;;;8.13;81.75;96008.13;4945496;28;20026;-86
2024/03/28 02:15:03;;;;;;;2.65;2.33;;;;;;;7.99;82.88;96004.75;4977213;28;20113;-86
2024/03/28 02:17:30;;;;;;;2.22;1.65;;;;;;;7.65;83.99;96022.25;4944910;28;20030;-86
2024/03/28 02:19:56;;;;;;;2.38;1.98;;;;;;;7.79;83.53;95980.53;4945330;28;20038;-86
2024/03/28 02:22:26;;;;;;;2.40;1.77;;;;;;;7.91;83.56;96033.88;4978875;28;20058;-86
2024/03/28 02:24:54;;;;;;;3.88;2.20;;;;;;;7.51;83.31;96017.00;4961532;28;20451;-86
2024/03/28 02:27:21;;;;;;;2.20;2.00;;;;;;;7.77;83.62;96030.50;4962230;28;20033;-86
2024/03/28 02:29:52;;;;;;;2.35;2.03;;;;;;;8.01;83.59;96037.13;4963104;28;20108;-86
2024/03/28 02:32:21;;;;;;;3.17;2.78;;;;;;;8.04;81.56;96006.50;4947034;28;20058;-86
2024/03/28 02:34:51;;;;;;;4.30;1.95;;;;;;;7.66;81.97;95974.19;4979289;28;20038;-86
2024/03/28 02:37:17;;;;;;;2.33;2.13;;;;;;;8.10;83.38;96040.59;4978683;28;20038;-86
2024/03/28 02:39:43;;;;;;;2.63;1.90;;;;;;;7.70;84.23;96038.88;4963427;28;20565;-85
2024/03/28 02:42:09;;;;;;;3.65;2.42;;;;;;;7.80;83.00;96012.09;4979806;28;20034;-86
2024/03/28 02:44:36;;;;;;;5.90;2.30;;;;;;;7.58;83.83;96036.72;4978332;28;20037;-86
2024/03/28 02:47:02;;;;;;;2.58;1.83;;;;;;;7.64;84.43;96044.59;4963408;28;20189;-86
2024/03/28 02:49:28;;;;;;;3.53;2.42;;;;;;;7.91;83.35;96041.84;4945837;28;20041;-86
2024/03/28 02:51:55;;;;;;;2.13;1.92;;;;;;;7.66;84.78;96031.78;4945885;28;20026;-86
2024/03/28 02:54:20;;;;;;;6.88;2.53;;;;;;;7.68;83.94;96027.75;4946610;28;20026;-86
2024/03/28 02:56:46;;;;;;;2.72;2.30;;;;;;;7.84;83.30;96033.53;4961670;28;20562;-86
2024/03/28 02:59:11;;;;;;;3.28;2.03;;;;;;;6.57;83.96;95863.03;4962247;28;20545;-86
2024/03/28 03:01:37;;;;;;;2.10;1.90;;;;;;;7.70;83.56;96038.06;4962092;28;20129;-86
2024/03/28 03:04:03;;;;;;;2.10;1.90;;;;;;;7.61;84.13;96013.31;4962082;28;20026;-86
2024/03/28 03:06:29;;;;;;;2.10;1.90;;;;;;;7.62;83.08;95999.78;4962559;28;20026;-86
2024/03/28 03:08:55;;;;;;;4.97;2.55;;;;;;;7.73;83.79;96027.66;4978347;28;20509;-85
2024/03/28 03:11:25;;;;;;;2.70;2.50;;;;;;;7.70;82.74;96003.56;4962700;28;20077;-86
2024/03/28 03:13:59;;;;;;;5.95;2.67;;;;;;;7.55;81.98;96010.78;4978461;28;20041;-86
2024/03/28 03:16:39;;;;;;;3.75;1.80;;;;;;;7.67;83.61;96015.56;4996521;28;20030;-86
2024/03/28 03:19:12;;;;;;;2.47;2.28;;;;;;;7.64;82.89;96008.22;4977365;28;20048;-87
2024/03/28 03:21:43;;;;;;;;;;;;;;;7.77;83.28;96015.34;4978499;28;20050;-86
2024/03/28 03:24:15;;;;;;;3.35;2.10;;;;;;;6.53;85.54;95946.78;4977689;28;19917;-86
2024/03/28 03:26:52;;;;;;;2.60;2.33;;;;;;;7.02;85.68;95995.69;4978007;28;20053;-86
2024/03/28 03:34:51;;;;;;;2.45;2.25;;;;;;;7.69;83.22;95994.03;4983745;28;20525;-85
2024/03/28 03:37:22;;;;;;;2.67;2.30;;;;;;;7.63;83.36;95997.88;4964852;28;20052;-86
2024/03/28 03:39:59;;;;;;;2.47;2.25;;;;;;;7.43;82.98;96005.19;4968106;28;20450;-87
2024/03/28 03:42:25;;;;;;;3.30;2.25;;;;;;;7.57;84.40;95997.22;4968571;28;20041;-85
2024/03/28 03:44:51;;;;;;;1.90;1.73;;;;;;;7.60;82.32;95980.69;4985016;28;20142;-86
2024/03/28 03:47:16;;;;;;;2.90;2.67;;;;;;;7.57;82.69;96003.31;4984526;28;20453;-86
2024/03/28 03:49:44;;;;;;;2.40;2.20;;;;;;;7.92;82.16;96014.22;5001768;28;20026;-86
2024/03/28 03:52:11;;;;;;;2.15;1.85;;;;;;;7.40;81.29;95907.59;4952587;28;20476;-86
2024/03/28 03:54:37;;;;;;;2.15;1.65;;;;;;;7.72;82.62;95969.53;5001066;28;20030;-85
2024/03/28 03:57:03;;;;;;;2.20;1.90;;;;;;;6.62;82.41;95809.09;4967584;28;20030;-85
2024/03/28 03:59:29;;;;;;;2.78;2.55;;;;;;;8.14;81.35;95993.00;4983968;28;20375;-85
2024/03/28 04:01:54;;;;;;;3.22;2.22;;;;;;;7.39;81.20;95905.25;4983546;28;20026;-85
2024/03/28 04:04:20;;;;;;;3.63;2.20;;;;;;;6.93;84.10;95931.97;4967982;28;20145;-86
2024/03/28 04:06:45;;;;;;;4.43;2.47;;;;;;;6.76;86.19;95988.25;4951251;28;20113;-85
2024/03/28 04:09:11;;;;;;;4.75;2.70;;;;;;;6.13;88.38;95960.78;4951408;28;20038;-85
2024/03/28 04:11:37;;;;;;;3.00;2.40;;;;;;;6.12;89.30;95998.09;4967441;28;20019;-85
2024/03/28 04:14:02;;;;;;;2.30;2.13;;;;;;;5.36;90.33;95911.94;4952454;28;20026;-85
2024/03/28 04:16:28;;;;;;;3.33;2.92;;;;;;;5.98;91.17;95982.97;4952117;28;20033;-85
2024/03/28 04:18:53;;;;;;;2.60;2.40;;;;;;;6.12;91.05;95963.69;4967881;28;20112;-85
2024/03/28 04:21:19;;;;;;;3.40;3.10;;;;;;;5.84;90.43;95942.44;4967588;28;20030;-86
2024/03/28 04:23:44;;;;;;;2.75;2.38;;;;;;;5.97;91.17;95957.59;4983341;28;20098;-85
2024/03/28 04:26:09;;;;;;;3.10;2.33;;;;;;;6.12;91.45;95956.53;4984363;28;20626;-85
2024/03/28 04:28:35;;;;;;;3.70;3.40;;;;;;;5.57;90.95;95859.53;4951066;28;20441;-85
2024/03/28 04:31:00;;;;;;;3.05;2.75;;;;;;;5.36;90.76;95887.34;4968134;28;20028;-86
2024/03/28 04:33:26;;;;;;;2.45;2.25;;;;;;;5.23;91.40;95863.22;4967396;28;20033;-85
2024/03/28 04:35:51;;;;;;;2.72;2.40;;;;;;;6.26;91.60;95944.13;4984040;28;20027;-86
2024/03/28 04:38:17;;;;;;;4.05;2.55;;;;;;;6.66;89.39;95946.03;4967697;28;20050;-85
2024/03/28 04:40:42;;;;;;;5.68;3.13;;;;;;;5.99;87.01;95857.50;4967026;28;20026;-85
2024/03/28 04:43:09;;;;;;;4.50;2.60;;;;;;;6.71;87.33;95939.84;4967522;28;20572;-85
2024/03/28 04:45:35;;;;;;;4.18;3.53;;;;;;;5.92;87.73;95893.34;5000685;28;20385;-84
2024/03/28 04:48:00;;;;;;;3.13;2.83;;;;;;;6.46;88.18;95871.44;4983052;28;20058;-85
2024/03/28 04:50:26;;;;;;;2.50;2.22;;;;;;;7.19;84.61;95901.19;4982730;28;20069;-85
2024/03/28 04:52:51;;;;;;;3.42;3.03;;;;;;;6.24;87.19;95919.81;4982652;28;20449;-85
2024/03/28 04:55:16;;;;;;;4.47;3.00;;;;;;;6.02;87.19;95835.72;4982434;28;20030;-84
2024/03/28 04:57:43;;;;;;;3.00;2.67;;;;;;;6.77;89.18;95942.09;4981926;28;20046;-86
2024/03/28 05:00:09;;;;;;;3.13;2.38;;;;;;;7.41;85.50;95940.25;4982242;28;20402;-85
2024/03/28 05:02:35;;;;;;;3.85;3.42;;;;;;;6.78;86.56;95924.34;4982420;28;20026;-85
2024/03/28 05:05:01;;;;;;;2.92;2.72;;;;;;;7.31;83.95;95896.16;4982580;28;20117;-85
2024/03/28 05:07:27;;;;;;;2.55;2.35;;;;;;;7.27;82.53;95881.91;4966557;28;20490;-85
2024/03/28 05:09:52;;;;;;;3.28;2.38;;;;;;;7.77;82.20;95925.09;4966111;28;20030;-85
2024/03/28 05:12:18;;;;;;;2.00;1.83;;;;;;;7.81;81.47;95894.19;4966753;28;20030;-86
2024/03/28 05:14:47;;;;;;;2.75;2.55;;;;;;;8.00;80.63;95929.31;4984571;28;20898;-85
2024/03/28 05:17:12;;;;;;;2.63;2.42;;;;;;;7.88;81.59;95912.34;4984342;28;20397;-86
2024/03/28 05:19:38;;;;;;;2.90;2.60;;;;;;;7.52;81.83;95865.41;4972537;28;20023;-86
2024/03/28 05:22:03;;;;;;;2.97;2.50;;;;;;;7.89;81.00;95903.28;4969330;28;20026;-85
2024/03/28 05:24:29;;;;;;;3.28;2.85;;;;;;;7.38;81.63;95846.09;4985654;28;20490;-85
2024/03/28 05:26:55;;;;;;;2.63;2.42;;;;;;;7.50;81.35;95901.31;4953110;28;20041;-86
2024/03/28 05:29:21;;;;;;;2.47;2.28;;;;;;;7.60;82.49;95900.28;4969624;28;20121;-85
2024/03/28 05:31:46;;;;;;;2.83;2.50;;;;;;;7.56;82.82;95892.91;4982184;28;20022;-85
2024/03/28 05:34:12;;;;;;;5.47;2.95;;;;;;;6.75;84.23;95845.41;4960329;28;20476;-84
2024/03/28 05:36:37;;;;;;;4.32;2.72;;;;;;;7.56;83.66;95887.63;4960346;28;20034;-84
2024/03/28 05:39:06;;;;;;;3.95;2.50;;;;;;;7.41;82.38;95863.28;4976659;28;20030;-84
2024/03/28 05:41:32;;;;;;;3.28;2.97;;;;;;;6.55;84.87;95851.91;4976091;28;20027;-85
2024/03/28 05:43:58;;;;;;;3.65;2.78;;;;;;;7.27;84.56;95889.88;4960099;28;20042;-85
2024/03/28 05:46:24;;;;;;;3.08;2.70;;;;;;;7.31;85.26;95898.03;4976186;28;20076;-85
2024/03/28 05:48:49;;;;;;;5.35;3.88;;;;;;;6.27;85.65;95854.88;4993616;28;20034;-85
2024/03/28 05:51:15;;;;;;;3.50;3.20;;;;;;;6.73;87.15;95905.88;4976232;28;20478;-85
2024/03/28 05:53:45;;;;;;;6.35;4.20;;;;;;;5.59;88.63;95841.50;4993413;28;20026;-84
2024/03/28 05:56:11;;;;;;;7.18;4.55;;;;;;;5.63;91.45;95898.84;4960398;28;20023;-84
2024/03/28 05:58:36;;;;;;;4.43;3.65;;;;;;;5.98;90.49;95890.31;4959746;28;20505;-85
2024/03/28 06:01:01;;;;;;;4.75;3.85;;;;;;;5.29;91.75;95779.28;4975096;28;20031;-84
2024/03/28 06:03:27;;;;;;;4.03;3.03;;;;;;;6.63;91.52;95901.56;4959340;28;20037;-85
2024/03/28 06:05:53;;;;;;;3.13;2.83;;;;;;;7.34;86.70;95892.91;4959466;28;20042;-85
2024/03/28 06:08:18;;;;;;;6.93;3.72;;;;;;;6.37;89.31;95894.41;4959273;28;20116;-88
2024/03/28 06:10:44;;;;;;;4.75;2.88;;;;;;;7.34;87.01;95892.09;4943464;28;20070;-88
2024/03/28 06:13:10;;;;;;;4.43;3.42;;;;;;;7.20;85.98;95870.94;4975277;28;20117;-88
2024/03/28 06:15:35;;;;;;;3.47;3.05;;;;;;;7.32;84.72;95849.19;4958950;28;20774;-88
2024/03/28 06:18:01;;;;;;;4.85;3.60;;;;;;;7.10;85.86;95884.41;4942978;28;20096;-86
2024/03/28 06:20:26;;;;;;;4.47;3.47;;;;;;;7.03;86.88;95884.06;4994275;28;20030;-86
2024/03/28 06:22:51;;;;;;;4.53;3.78;;;;;;;6.92;87.53;95889.88;4960488;28;20081;-85
2024/03/28 06:25:17;;;;;;;3.92;2.95;;;;;;;6.81;89.80;95890.06;4960413;28;20038;-86
2024/03/28 06:27:42;;;;;;;7.43;4.90;;;;;;;6.55;90.39;95877.63;4976729;28;20546;-86
2024/03/28 06:30:08;;;;;;;4.47;3.17;;;;;;;7.27;85.71;95847.41;4966088;28;20371;-86
2024/03/28 06:32:33;;;;;;;7.90;4.30;;;;;;;7.10;87.73;95908.28;5000719;28;20394;-86
2024/03/28 06:34:58;;;;;;;5.13;3.17;;;;;;;7.44;85.25;95874.09;4967083;28;20037;-86
2024/03/28 06:37:24;;;;;;;4.22;3.80;;;;;;;6.79;87.21;95818.00;4967049;28;20462;-86
2024/03/28 06:39:50;;;;;;;8.93;6.32;;;;;;;6.54;89.10;95884.78;4967278;28;20030;-86
2024/03/28 06:42:16;;;;;;;5.20;4.13;;;;;;;6.71;91.10;95905.38;5000386;28;20052;-86
2024/03/28 06:44:49;;;;;;;7.47;4.93;;;;;;;6.97;89.42;95903.78;4982912;28;20034;-86
2024/03/28 06:47:15;;;;;;;12.07;7.20;;;;;;;6.64;90.15;95855.44;4999133;28;20539;-86
2024/03/28 06:49:41;;;;;;;7.70;5.45;;;;;;;7.05;89.40;95907.63;4967199;28;20033;-86
2024/03/28 06:52:07;;;;;;;11.05;7.50;;;;;;;6.58;89.72;95845.22;4983670;28;20077;-86
2024/03/28 06:54:33;;;;;;;9.38;7.10;;;;;;;6.87;88.63;95861.59;4982778;28;20025;-85
2024/03/28 06:56:58;;;;;;;9.95;6.78;;;;;;;7.19;86.58;95847.34;4967644;28;20022;-86
2024/03/28 06:59:24;;;;;;;9.13;6.15;;;;;;;7.27;87.29;95881.16;5000615;28;20034;-86
2024/03/28 07:01:50;;;;;;;13.40;9.73;;;;;;;7.21;88.00;95872.50;4982009;28;20070;-86
2024/03/28 07:04:16;;;;;;;11.25;7.72;;;;;;;7.17;86.96;95860.13;4966998;28;20034;-86
2024/03/28 07:06:41;;;;;;;13.52;8.60;;;;;;;7.40;87.71;95886.38;4982653;28;20030;-86
2024/03/28 07:09:07;;;;;;;13.77;8.52;;;;;;;7.16;88.81;95864.69;4950741;28;20072;-85
2024/03/28 07:11:33;;;;;;;13.02;8.82;;;;;;;7.09;88.33;95851.03;4982791;28;20029;-86
2024/03/28 07:13:59;;;;;;;15.88;9.75;;;;;;;7.43;87.48;95890.31;4982566;28;20542;-86
2024/03/28 07:16:24;;;;;;;12.40;7.95;;;;;;;6.77;87.46;95766.41;4982389;28;20065;-86
2024/03/28 07:18:52;;;;;;;16.17;9.40;;;;;;;7.22;87.19;95847.56;4966121;28;20056;-86
2024/03/28 07:21:18;;;;;;;12.48;8.38;;;;;;;7.44;87.94;95873.31;4982040;28;20037;-86
2024/03/28 07:23:43;;;;;;;9.80;8.10;;;;;;;7.38;87.82;95858.59;4982480;28;20132;-86
2024/03/28 07:26:08;;;;;;;10.55;7.60;;;;;;;7.40;87.93;95857.19;4965722;28;20031;-88
2024/03/28 07:28:34;;;;;;;13.25;9.27;;;;;;;7.24;87.96;95834.78;4982783;28;20027;-86
2024/03/28 07:30:59;;;;;;;13.18;8.02;;;;;;;7.36;86.78;95834.25;5000067;28;20018;-86
2024/03/28 07:33:25;;;;;;;10.05;6.90;;;;;;;7.06;86.91;95781.88;4982256;28;20038;-85
2024/03/28 07:35:50;;;;;;;13.38;8.32;;;;;;;7.45;87.03;95838.50;4982018;28;20033;-86
2024/03/28 07:38:17;;;;;;;9.60;7.55;;;;;;;7.54;87.02;95843.88;4982132;28;20100;-86
2024/03/28 07:40:46;;;;;;;9.27;7.30;;;;;;;7.56;86.55;95849.66;4982828;28;20121;-86
2024/03/28 07:43:12;;;;;;;13.45;8.02;;;;;;;7.52;87.96;95862.75;4999704;28;20085;-85
2024/03/28 07:45:38;;;;;;;11.23;8.48;;;;;;;7.60;87.26;95863.91;4999934;28;20081;-85
2024/03/28 07:48:03;;;;;;;12.32;8.57;;;;;;;7.09;87.30;95778.66;4982146;28;20037;-86
2024/03/28 07:50:29;;;;;;;9.52;7.43;;;;;;;7.56;88.33;95860.28;4950418;28;20026;-85
2024/03/28 07:52:54;;;;;;;11.00;8.25;;;;;;;7.62;87.17;95869.72;4950271;28;20045;-85
2024/03/28 07:55:22;;;;;;;10.98;6.80;;;;;;;7.31;86.74;95818.44;4981871;28;20134;-86
2024/03/28 07:57:48;;;;;;;10.48;7.38;;;;;;;7.04;86.11;95807.91;4966739;28;20390;-86
2024/03/28 08:00:15;;;;;;;9.15;6.90;;;;;;;7.50;87.63;95874.75;4965806;28;20044;-85
2024/03/28 08:02:40;;;;;;;13.85;6.95;;;;;;;7.68;86.95;95892.38;4950358;28;20042;-86
2024/03/28 08:05:06;;;;;;;9.43;6.13;;;;;;;7.26;88.76;95866.31;4983020;28;20080;-86
2024/03/28 08:07:31;;;;;;;7.97;5.88;;;;;;;7.30;87.86;95846.84;4981858;28;20077;-85
2024/03/28 08:09:58;;;;;;;10.65;6.18;;;;;;;7.63;86.74;95878.44;4950482;28;20081;-86
2024/03/28 08:12:23;;;;;;;11.57;6.50;;;;;;;7.27;87.65;95858.03;4982322;28;20035;-85
2024/03/28 08:14:49;;;;;;;8.07;5.45;;;;;;;7.60;88.01;95879.81;4982912;28;20041;-86
2024/03/28 08:17:17;;;;;;;8.32;5.78;;;;;;;7.31;87.34;95823.75;4981971;28;20498;-86
2024/03/28 08:19:42;;;;;;;7.28;6.25;;;;;;;7.64;87.32;95869.41;4982090;28;20026;-84
2024/03/28 08:22:10;;;;;;;7.47;5.82;;;;;;;7.66;86.48;95852.09;4949936;28;20584;-85
2024/03/28 08:24:36;;;;;;;8.80;5.30;;;;;;;7.58;86.38;95842.19;4983095;28;20027;-85
2024/03/28 08:27:02;;;;;;;6.93;5.70;;;;;;;7.68;86.07;95854.44;4970011;28;20094;-86
2024/03/28 08:29:27;;;;;;;9.55;5.60;;;;;;;7.82;85.80;95871.84;5003576;28;20034;-86
2024/03/28 08:31:52;;;;;;;5.85;4.80;;;;;;;7.38;86.42;95814.25;4968940;28;20029;-85
2024/03/28 08:34:18;;;;;;;7.03;5.47;;;;;;;7.27;85.54;95772.38;4985923;28;20421;-86
2024/03/28 08:36:44;;;;;;;9.82;5.68;;;;;;;7.16;86.28;95771.84;4953625;28;20589;-86
2024/03/28 08:39:09;;;;;;;6.30;4.95;;;;;;;7.77;85.69;95842.78;4970015;28;20521;-85
2024/03/28 08:41:35;;;;;;;6.75;4.75;;;;;;;7.84;85.26;95845.00;4985278;28;20038;-85
2024/03/28 08:44:01;;;;;;;5.18;4.25;;;;;;;7.97;84.06;95828.97;4953044;28;20121;-84
2024/03/28 08:46:27;;;;;;;5.57;4.80;;;;;;;7.94;84.83;95845.53;4985587;28;20474;-85
2024/03/28 08:48:53;;;;;;;7.40;4.32;;;;;;;8.08;84.53;95853.44;4968300;28;20030;-85
2024/03/28 08:51:22;;;;;;;5.13;4.63;;;;;;;7.94;84.28;95847.41;4984457;28;20033;-85
2024/03/28 08:53:50;;;;;;;4.50;4.10;;;;;;;8.12;84.73;95851.72;4984659;28;20030;-85
2024/03/28 08:56:17;;;;;;;5.55;3.92;;;;;;;8.14;84.55;95860.16;4967789;28;20053;-85
2024/03/28 08:58:43;;;;;;;4.63;4.03;;;;;;;7.91;84.98;95824.91;4984287;28;20030;-85
2024/03/28 09:01:08;;;;;;;4.07;3.67;;;;;;;7.85;84.85;95812.06;4967187;28;20114;-86
2024/03/28 09:03:34;;;;;;;3.88;3.38;;;;;;;7.88;84.02;95798.19;4983395;28;20066;-85
2024/03/28 09:06:00;;;;;;;5.35;3.08;;;;;;;8.12;83.04;95838.44;4966595;28;20034;-85
2024/03/28 09:08:26;;;;;;;2.92;2.72;;;;;;;7.87;83.78;95800.03;4982837;28;20488;-85
2024/03/28 09:10:55;;;;;;;3.63;2.90;;;;;;;8.16;83.94;95855.31;4951050;28;20031;-85
2024/03/28 09:13:21;;;;;;;3.30;2.83;;;;;;;8.00;82.94;95814.31;4966426;28;20061;-84
2024/03/28 09:15:47;;;;;;;5.25;2.80;;;;;;;7.85;82.57;95791.59;4965899;28;20028;-85
2024/03/28 09:18:12;;;;;;;3.17;2.75;;;;;;;8.32;81.64;95859.19;4999918;28;20106;-85
2024/03/28 09:20:40;;;;;;;3.45;2.90;;;;;;;8.32;81.20;95854.63;4999334;28;20034;-84
2024/03/28 09:23:07;;;;;;;2.42;2.22;;;;;;;8.27;80.17;95846.03;4982777;28;20494;-84
2024/03/28 09:25:33;;;;;;;7.65;2.78;;;;;;;8.30;80.96;95850.72;4966162;28;20124;-84
2024/03/28 09:27:59;;;;;;;3.47;2.38;;;;;;;8.43;79.68;95859.69;4981704;28;20418;-84
2024/03/28 09:30:25;;;;;;;2.80;2.13;;;;;;;8.25;80.08;95846.34;4980815;28;20022;-85
2024/03/28 09:32:50;;;;;;;3.08;2.72;;;;;;;8.29;79.12;95843.84;4965345;28;20111;-85
2024/03/28 09:35:16;;;;;;;2.58;2.15;;;;;;;8.51;78.77;95867.69;4964986;28;20033;-85
2024/03/28 09:37:41;;;;;;;4.03;2.40;;;;;;;8.45;78.13;95857.50;4980638;28;20034;-84
2024/03/28 09:40:08;;;;;;;2.67;2.45;;;;;;;8.34;78.02;95830.44;4964688;28;20133;-85
2024/03/28 09:42:37;;;;;;;2.72;2.40;;;;;;;8.47;77.46;95834.06;4965259;28;20034;-85
2024/03/28 09:45:06;;;;;;;7.00;2.28;;;;;;;8.57;77.60;95852.38;4981540;28;20137;-84
2024/03/28 09:47:33;;;;;;;2.55;2.35;;;;;;;8.36;76.92;95846.84;4998071;28;20037;-84
2024/03/28 09:50:00;;;;;;;3.47;2.05;;;;;;;8.47;78.04;95856.13;4998155;28;20105;-85
2024/03/28 09:52:28;;;;;;;1.90;1.80;;;;;;;8.49;77.92;95864.56;4964668;28;20034;-85
2024/03/28 09:54:54;;;;;;;3.97;2.17;;;;;;;8.34;77.48;95837.63;4997912;28;20034;-84
2024/03/28 09:57:19;;;;;;;2.13;1.98;;;;;;;8.46;77.10;95851.88;4964192;28;20141;-84
2024/03/28 09:59:44;;;;;;;3.53;2.25;;;;;;;8.18;77.10;95838.00;4979983;28;20093;-83
2024/03/28 10:02:27;;;;;;;1.83;1.70;;;;;;;8.11;77.83;95842.16;4997539;28;20022;-84
2024/03/28 10:04:55;;;;;;;2.95;1.92;;;;;;;8.28;77.08;95839.63;4980638;28;20026;-84
2024/03/28 10:07:24;;;;;;;2.95;1.52;;;;;;;8.11;76.91;95845.63;4980521;28;20041;-84
2024/03/28 10:09:50;;;;;;;1.77;1.50;;;;;;;8.29;76.95;95873.88;4980778;28;20050;-84
2024/03/28 10:12:16;;;;;;;1.50;1.40;;;;;;;8.32;76.57;95877.00;4980626;28;20372;-84
2024/03/28 10:14:56;;;;;;;2.75;1.55;;;;;;;8.41;77.20;95910.47;4980403;28;20081;-84
2024/03/28 10:17:24;;;;;;;1.92;1.55;;;;;;;8.25;76.93;95890.69;4998171;28;20109;-84
2024/03/28 10:20:07;;;;;;;1.73;1.60;;;;;;;8.06;77.38;95908.72;4980294;28;20030;-86
2024/03/28 10:22:41;;;;;;;2.10;1.63;;;;;;;8.13;77.50;95920.47;4949158;28;20045;-86
2024/03/28 10:25:17;;;;;;;2.53;1.80;;;;;;;8.28;77.72;95914.00;4997719;28;20022;-85
2024/03/28 10:27:42;;;;;;;2.15;1.30;;;;;;;8.03;76.79;95901.34;4997968;28;20089;-85
2024/03/28 10:30:11;;;;;;;1.55;0.95;;;;;;;8.08;77.57;95936.53;4964492;28;20050;-87
2024/03/28 10:32:37;;;;;;;3.22;1.45;;;;;;;8.16;76.39;95949.09;4981763;28;20034;-86
2024/03/28 10:35:03;;;;;;;1.50;1.40;;;;;;;7.49;77.19;95881.94;4998682;28;20052;-86
2024/03/28 10:37:29;;;;;;;3.22;1.45;;;;;;;7.85;77.88;95952.78;4964952;28;20050;-86
2024/03/28 10:39:54;;;;;;;0.98;0.75;;;;;;;7.94;77.97;95969.56;4981511;28;20022;-87
2024/03/28 10:42:20;;;;;;;1.50;1.40;;;;;;;7.71;78.37;95970.63;4965168;28;20050;-86
2024/03/28 10:44:46;;;;;;;1.58;0.93;;;;;;;7.76;78.95;95989.88;4965252;28;20662;-86
2024/03/28 10:47:15;;;;;;;3.25;1.52;;;;;;;7.87;79.39;95993.09;4963789;28;20121;-86
2024/03/28 10:49:59;;;;;;;4.40;1.48;;;;;;;7.82;80.21;95996.63;4976605;28;20265;-87
2024/03/28 10:52:50;;;;;;;1.52;1.33;;;;;;;7.76;80.84;95984.56;4975376;28;20494;-87
2024/03/28 10:55:22;;;;;;;0.98;0.90;;;;;;;7.65;82.09;96001.00;4975013;28;20058;-87
2024/03/28 10:57:47;;;;;;;1.15;1.00;;;;;;;7.06;82.40;95898.56;4991274;28;20588;-88
2024/03/28 11:00:14;;;;;;;1.80;1.30;;;;;;;7.84;81.84;96002.44;4974668;28;20058;-87
2024/03/28 11:02:43;;;;;;;0.98;0.98;;;;;;;7.97;81.15;96000.84;4991790;28;20037;-87
2024/03/28 11:05:08;;;;;;;1.00;1.00;;;;;;;7.26;82.02;95906.09;4974986;28;20030;-88
2024/03/28 11:07:34;;;;;;;0.65;0.65;;;;;;;7.78;82.23;96003.63;4974449;28;20069;-87
2024/03/28 11:10:00;;;;;;;0.80;0.80;;;;;;;7.77;82.24;96022.53;4991617;28;20154;-87
2024/03/28 11:12:26;;;;;;;2.42;2.20;;;;;;;7.84;83.33;96021.00;4991686;28;20030;-87
2024/03/28 11:15:00;;;;;;;6.45;1.05;;;;;;;7.96;82.23;96028.47;4991751;28;20101;-87
2024/03/28 11:17:26;;;;;;;0.75;0.75;;;;;;;7.89;82.08;96015.59;4974522;28;20029;-87
2024/03/28 11:20:11;;;;;;;1.10;0.93;;;;;;;7.79;82.88;96031.78;4958244;28;20030;-87
2024/03/28 11:22:36;;;;;;;4.93;1.33;;;;;;;7.92;82.96;96024.84;4974463;28;20053;-87
2024/03/28 11:25:02;;;;;;;1.98;1.02;;;;;;;7.73;82.22;96008.28;4974373;28;20022;-87
2024/03/28 11:27:28;;;;;;;3.20;1.30;;;;;;;7.69;84.09;96016.03;4958378;28;20038;-87
2024/03/28 11:30:14;;;;;;;1.45;1.35;;;;;;;7.72;84.26;96004.06;4964880;28;20038;-86
2024/03/28 11:32:39;;;;;;;2.13;1.60;;;;;;;7.21;83.30;95912.28;4979102;28;20027;-86
2024/03/28 11:35:12;;;;;;;1.48;1.25;;;;;;;7.77;82.04;95958.81;4976801;28;20046;-87
2024/03/28 11:37:37;;;;;;;1.50;1.38;;;;;;;7.26;82.86;95877.69;4974223;28;20023;-88
2024/03/28 11:40:03;;;;;;;2.85;1.23;;;;;;;7.38;82.88;95883.25;4958385;28;20041;-87
2024/03/28 11:42:29;;;;;;;1.52;1.42;;;;;;;8.37;83.30;96046.91;4958423;28;20643;-88